createdAt,value
2019-04-28T00:00:41.239Z,11.12
2019-04-28T00:03:11.236Z,11.16
2019-04-28T00:05:41.537Z,11.19
2019-04-28T00:08:11.642Z,11.21
2019-04-28T00:10:41.843Z,11.14
2019-04-28T00:13:12.425Z,11.22
2019-04-28T00:15:42.381Z,11.24
2019-04-28T00:18:12.303Z,11.21
2019-04-28T00:20:43.645Z,11.23
2019-04-28T00:23:13.213Z,11.25
2019-04-28T00:25:54.569Z,11.20
2019-04-28T00:28:24.359Z,11.17
2019-04-28T00:30:54.152Z,11.18
2019-04-28T00:33:23.998Z,11.17
2019-04-28T00:35:53.689Z,11.20
2019-04-28T00:38:23.389Z,11.16
2019-04-28T00:40:53.147Z,11.15
2019-04-28T00:43:22.820Z,11.10
2019-04-28T00:45:52.673Z,11.10
2019-04-28T00:48:22.404Z,11.12
2019-04-28T00:50:52.109Z,11.21
2019-04-28T00:53:23.081Z,11.22
2019-04-28T00:55:54.004Z,11.18
2019-04-28T00:58:23.983Z,11.16
2019-04-28T01:00:58.217Z,11.22
2019-04-28T01:03:27.876Z,11.18
2019-04-28T01:05:57.712Z,11.22
2019-04-28T01:08:27.590Z,11.14
2019-04-28T01:10:57.509Z,11.22
2019-04-28T01:13:27.288Z,11.26
2019-04-28T01:16:07.200Z,11.27
2019-04-28T01:18:40.325Z,11.19
2019-04-28T01:21:10.701Z,11.15
2019-04-28T01:23:40.861Z,11.19
2019-04-28T01:26:10.628Z,11.27
2019-04-28T01:28:40.499Z,11.24
2019-04-28T01:31:14.949Z,11.24
2019-04-28T01:34:02.179Z,11.14
2019-04-28T01:36:32.625Z,11.17
2019-04-28T01:39:02.511Z,11.11
2019-04-28T01:41:32.197Z,11.11
2019-04-28T01:44:02.084Z,11.02
2019-04-28T01:46:31.767Z,11.11
2019-04-28T01:49:01.572Z,11.09
2019-04-28T01:51:31.350Z,11.09
2019-04-28T01:54:01.084Z,11.07
2019-04-28T01:56:30.813Z,11.07
2019-04-28T01:59:00.546Z,11.07
2019-04-28T02:01:30.535Z,11.10
2019-04-28T02:04:00.392Z,11.10
2019-04-28T02:06:30.201Z,11.05
2019-04-28T02:09:00.868Z,11.02
2019-04-28T02:11:30.953Z,10.97
2019-04-28T02:14:00.625Z,10.94
2019-04-28T02:16:30.382Z,10.93
2019-04-28T02:19:00.148Z,10.86
2019-04-28T02:21:39.556Z,10.92
2019-04-28T02:24:27.125Z,10.82
2019-04-28T02:26:57.206Z,10.88
2019-04-28T02:29:27.242Z,10.92
2019-04-28T02:32:01.719Z,10.92
2019-04-28T02:34:31.170Z,10.89
2019-04-28T02:37:01.942Z,10.86
2019-04-28T02:39:31.771Z,10.95
2019-04-28T02:42:01.922Z,10.89
2019-04-28T02:44:34.988Z,10.81
2019-04-28T02:47:03.764Z,10.72
2019-04-28T02:49:40.357Z,10.79
2019-04-28T02:52:11.972Z,10.78
2019-04-28T02:54:41.681Z,10.80
2019-04-28T02:57:11.293Z,10.82
2019-04-28T02:59:44.694Z,10.79
2019-04-28T03:02:12.666Z,10.79
2019-04-28T03:04:42.650Z,10.72
2019-04-28T03:07:14.571Z,10.71
2019-04-28T03:09:43.933Z,10.65
2019-04-28T03:12:13.772Z,10.60
2019-04-28T03:14:44.244Z,10.62
2019-04-28T03:17:14.165Z,10.60
2019-04-28T03:19:44.745Z,10.54
2019-04-28T03:22:14.580Z,10.49
2019-04-28T03:24:45.832Z,10.49
2019-04-28T03:27:25.916Z,10.43
2019-04-28T03:30:00.785Z,10.44
2019-04-28T03:32:45.020Z,10.47
2019-04-28T03:35:04.413Z,10.45
2019-04-28T03:37:34.246Z,10.46
2019-04-28T03:40:04.998Z,10.43
2019-04-28T03:42:34.705Z,10.48
2019-04-28T03:45:06.913Z,10.51
2019-04-28T03:47:36.565Z,10.46
2019-04-28T03:50:10.180Z,10.44
2019-04-28T03:52:41.339Z,10.47
2019-04-28T03:55:11.708Z,10.59
2019-04-28T03:57:41.696Z,10.56
2019-04-28T04:00:11.975Z,10.51
2019-04-28T04:02:41.848Z,10.52
2019-04-28T04:05:11.833Z,10.57
2019-04-28T04:07:43.272Z,10.60
2019-04-28T04:10:26.910Z,10.57
2019-04-28T04:13:00.682Z,10.57
2019-04-28T04:15:30.886Z,10.56
2019-04-28T04:18:02.371Z,10.62
2019-04-28T04:20:32.230Z,10.67
2019-04-28T04:23:01.899Z,10.70
2019-04-28T04:25:31.670Z,10.66
2019-04-28T04:28:03.852Z,10.68
2019-04-28T04:30:32.872Z,10.71
2019-04-28T04:33:02.770Z,10.74
2019-04-28T04:35:32.527Z,10.71
2019-04-28T04:38:02.339Z,10.69
2019-04-28T04:40:32.269Z,10.72
2019-04-28T04:43:02.266Z,10.76
2019-04-28T04:45:32.012Z,10.75
2019-04-28T04:48:01.904Z,10.75
2019-04-28T04:50:31.677Z,10.70
2019-04-28T04:53:02.596Z,10.73
2019-04-28T04:55:32.983Z,10.76
2019-04-28T04:58:02.857Z,10.78
2019-04-28T05:00:44.245Z,10.76
2019-04-28T05:03:15.610Z,10.77
2019-04-28T05:05:45.286Z,10.78
2019-04-28T05:08:15.567Z,10.80
2019-04-28T05:10:45.463Z,10.85
2019-04-28T05:13:15.265Z,10.85
2019-04-28T05:15:44.964Z,10.84
2019-04-28T05:18:14.771Z,10.89
2019-04-28T05:20:44.635Z,10.87
2019-04-28T05:23:21.943Z,10.88
2019-04-28T05:25:51.762Z,10.98
2019-04-28T05:28:21.751Z,11.03
2019-04-28T05:30:51.519Z,11.12
2019-04-28T05:33:30.509Z,11.15
2019-04-28T05:36:02.630Z,11.13
2019-04-28T05:38:30.655Z,11.15
2019-04-28T05:41:02.814Z,11.19
2019-04-28T05:43:31.848Z,11.29
2019-04-28T05:46:01.684Z,11.29
2019-04-28T05:48:36.290Z,11.29
2019-04-28T05:51:13.669Z,11.29
2019-04-28T05:54:01.607Z,11.32
2019-04-28T05:56:33.086Z,11.33
2019-04-28T05:59:04.487Z,11.22
2019-04-28T06:01:52.495Z,11.27
2019-04-28T06:04:23.993Z,11.33
2019-04-28T06:06:55.290Z,11.33
2019-04-28T06:09:26.651Z,11.40
2019-04-28T06:11:56.561Z,11.46
2019-04-28T06:14:26.315Z,11.39
2019-04-28T06:16:56.149Z,11.45
2019-04-28T06:19:25.851Z,11.43
2019-04-28T06:21:55.532Z,11.53
2019-04-28T06:24:25.333Z,11.56
2019-04-28T06:26:55.175Z,11.63
2019-04-28T06:29:24.884Z,11.65
2019-04-28T06:31:54.723Z,11.79
2019-04-28T06:34:24.554Z,11.82
2019-04-28T06:36:54.225Z,11.95
2019-04-28T06:39:24.021Z,12.16
2019-04-28T06:41:53.852Z,12.23
2019-04-28T06:44:23.738Z,12.36
2019-04-28T06:46:53.385Z,12.44
2019-04-28T06:49:23.147Z,12.41
2019-04-28T06:51:53.036Z,12.51
2019-04-28T06:54:22.914Z,12.50
2019-04-28T06:56:52.697Z,12.38
2019-04-28T06:59:22.456Z,12.38
2019-04-28T07:01:52.363Z,12.39
2019-04-28T07:04:22.256Z,12.52
2019-04-28T07:06:52.246Z,12.58
2019-04-28T07:09:21.972Z,12.52
2019-04-28T07:11:51.791Z,12.42
2019-04-28T07:14:21.892Z,12.47
2019-04-28T07:16:51.629Z,12.56
2019-04-28T07:19:21.390Z,12.57
2019-04-28T07:22:08.625Z,12.48
2019-04-28T07:24:38.457Z,12.43
2019-04-28T07:27:08.966Z,12.21
2019-04-28T07:29:38.833Z,12.11
2019-04-28T07:32:08.666Z,12.13
2019-04-28T07:34:38.564Z,12.10
2019-04-28T07:37:08.472Z,12.08
2019-04-28T07:39:38.143Z,12.12
2019-04-28T07:42:07.785Z,12.07
2019-04-28T07:44:37.534Z,12.07
2019-04-28T07:47:07.411Z,12.12
2019-04-28T07:49:37.114Z,12.33
2019-04-28T07:52:12.719Z,12.30
2019-04-28T07:54:43.022Z,12.32
2019-04-28T07:57:12.716Z,12.47
2019-04-28T07:59:42.589Z,12.83
2019-04-28T08:02:12.376Z,13.03
2019-04-28T08:04:42.233Z,13.25
2019-04-28T08:07:11.984Z,13.18
2019-04-28T08:09:41.991Z,13.23
2019-04-28T08:12:11.751Z,13.16
2019-04-28T08:14:41.519Z,13.15
2019-04-28T08:17:11.688Z,13.34
2019-04-28T08:19:41.401Z,13.55
2019-04-28T08:22:11.148Z,13.70
2019-04-28T08:24:40.775Z,13.64
2019-04-28T08:27:10.668Z,13.62
2019-04-28T08:29:40.376Z,13.76
2019-04-28T08:32:14.846Z,13.67
2019-04-28T08:34:44.708Z,13.67
2019-04-28T08:37:14.505Z,13.83
2019-04-28T08:39:44.332Z,14.03
2019-04-28T08:42:14.026Z,14.23
2019-04-28T08:44:43.714Z,14.49
2019-04-28T08:47:13.488Z,14.53
2019-04-28T08:49:43.102Z,14.67
2019-04-28T08:52:12.859Z,14.70
2019-04-28T08:54:42.601Z,14.60
2019-04-28T08:57:12.470Z,14.43
2019-04-28T08:59:42.214Z,14.16
2019-04-28T09:02:12.140Z,13.93
2019-04-28T09:04:41.849Z,13.65
2019-04-28T09:07:11.711Z,13.50
2019-04-28T09:09:41.503Z,13.55
2019-04-28T09:12:11.294Z,13.69
2019-04-28T09:14:41.042Z,13.79
2019-04-28T09:17:10.699Z,14.20
2019-04-28T09:19:42.441Z,14.71
2019-04-28T09:22:11.915Z,15.03
2019-04-28T09:24:41.715Z,15.29
2019-04-28T09:27:11.462Z,15.14
2019-04-28T09:29:41.168Z,14.83
2019-04-28T09:32:10.921Z,14.47
2019-04-28T09:34:40.665Z,14.37
2019-04-28T09:37:10.435Z,14.60
2019-04-28T09:39:41.839Z,14.62
2019-04-28T09:42:29.511Z,14.61
2019-04-28T09:45:09.373Z,14.57
2019-04-28T09:47:39.024Z,14.66
2019-04-28T09:50:09.030Z,15.15
2019-04-28T09:52:38.821Z,15.23
2019-04-28T09:55:09.187Z,15.35
2019-04-28T09:57:38.894Z,15.35
2019-04-28T10:00:10.361Z,15.46
2019-04-28T10:02:40.129Z,15.58
2019-04-28T10:05:11.263Z,15.69
2019-04-28T10:07:40.981Z,15.53
2019-04-28T10:10:12.559Z,15.49
2019-04-28T10:12:42.211Z,15.33
2019-04-28T10:15:12.906Z,15.12
2019-04-28T10:17:42.656Z,14.80
2019-04-28T10:20:12.860Z,14.87
2019-04-28T10:22:42.734Z,14.79
2019-04-28T10:25:12.967Z,14.86
2019-04-28T10:27:42.792Z,15.00
2019-04-28T10:30:13.552Z,15.15
2019-04-28T10:32:43.268Z,15.00
2019-04-28T10:35:13.615Z,14.99
2019-04-28T10:37:45.552Z,14.88
2019-04-28T10:40:23.697Z,14.71
2019-04-28T10:42:53.481Z,14.68
2019-04-28T10:45:24.878Z,14.99
2019-04-28T10:47:54.787Z,15.12
2019-04-28T10:50:24.712Z,15.33
2019-04-28T10:52:54.550Z,15.51
2019-04-28T10:55:24.284Z,15.69
2019-04-28T10:57:53.998Z,15.69
2019-04-28T11:00:25.461Z,15.58
2019-04-28T11:02:55.194Z,15.43
2019-04-28T11:05:32.413Z,15.30
2019-04-28T11:08:04.026Z,15.34
2019-04-28T11:10:34.383Z,15.17
2019-04-28T11:13:04.184Z,14.87
2019-04-28T11:15:35.756Z,14.76
2019-04-28T11:18:08.079Z,14.62
2019-04-28T11:20:37.904Z,14.57
2019-04-28T11:23:07.858Z,14.60
2019-04-28T11:25:37.542Z,14.96
2019-04-28T11:28:07.666Z,15.31
2019-04-28T11:30:37.488Z,15.64
2019-04-28T11:33:19.219Z,15.65
2019-04-28T11:35:49.477Z,15.72
2019-04-28T11:38:19.200Z,15.82
2019-04-28T11:40:48.915Z,15.65
2019-04-28T11:43:18.872Z,15.64
2019-04-28T11:45:48.647Z,15.64
2019-04-28T11:48:18.477Z,15.72
2019-04-28T11:50:48.264Z,15.72
2019-04-28T11:53:18.353Z,15.76
2019-04-28T11:55:48.126Z,15.81
2019-04-28T11:58:17.907Z,15.77
2019-04-28T12:00:47.794Z,15.68
2019-04-28T12:03:17.624Z,15.86
2019-04-28T12:05:47.867Z,15.90
2019-04-28T12:08:17.594Z,15.88
2019-04-28T12:10:50.093Z,15.75
2019-04-28T12:13:23.860Z,15.78
2019-04-28T12:16:08.574Z,16.00
2019-04-28T12:18:38.012Z,16.11
2019-04-28T12:21:08.043Z,16.32
2019-04-28T12:23:37.784Z,16.31
2019-04-28T12:26:07.510Z,16.13
2019-04-28T12:28:37.393Z,16.06
2019-04-28T12:31:07.293Z,15.94
2019-04-28T12:33:37.081Z,15.97
2019-04-28T12:36:09.027Z,15.98
2019-04-28T12:38:38.680Z,15.77
2019-04-28T12:41:08.554Z,15.41
2019-04-28T12:43:38.273Z,15.26
2019-04-28T12:46:08.168Z,15.08
2019-04-28T12:48:37.835Z,14.94
2019-04-28T12:51:07.740Z,14.90
2019-04-28T12:53:37.621Z,14.80
2019-04-28T12:56:07.511Z,14.67
2019-04-28T12:58:37.323Z,14.59
2019-04-28T13:01:25.322Z,14.76
2019-04-28T13:03:59.288Z,14.83
2019-04-28T13:06:29.074Z,15.25
2019-04-28T13:08:58.845Z,15.43
2019-04-28T13:11:28.561Z,15.73
2019-04-28T13:13:58.258Z,15.69
2019-04-28T13:16:28.091Z,15.76
2019-04-28T13:18:57.976Z,15.84
2019-04-28T13:21:27.799Z,15.72
2019-04-28T13:23:57.908Z,15.49
2019-04-28T13:26:27.692Z,15.47
2019-04-28T13:28:57.538Z,15.43
2019-04-28T13:31:27.284Z,15.57
2019-04-28T13:33:59.061Z,15.67
2019-04-28T13:36:30.138Z,15.61
2019-04-28T13:39:02.011Z,15.70
2019-04-28T13:41:31.761Z,15.78
2019-04-28T13:44:03.062Z,15.87
2019-04-28T13:46:32.857Z,15.94
2019-04-28T13:49:04.267Z,15.99
2019-04-28T13:51:34.241Z,15.89
2019-04-28T13:54:05.977Z,15.87
2019-04-28T13:56:35.715Z,15.85
2019-04-28T13:59:07.258Z,15.83
2019-04-28T14:01:50.826Z,15.86
2019-04-28T14:04:40.602Z,16.44
2019-04-28T14:07:10.449Z,16.82
2019-04-28T14:09:40.141Z,16.72
2019-04-28T14:12:09.975Z,16.51
2019-04-28T14:14:39.663Z,16.30
2019-04-28T14:17:09.453Z,16.27
2019-04-28T14:19:39.164Z,16.14
2019-04-28T14:22:08.942Z,16.11
2019-04-28T14:24:38.690Z,16.81
2019-04-28T14:27:08.463Z,17.98
2019-04-28T14:29:38.389Z,18.60
2019-04-28T14:32:08.215Z,18.33
2019-04-28T14:34:38.105Z,19.12
2019-04-28T14:37:07.910Z,19.21
2019-04-28T14:39:37.791Z,19.22
2019-04-28T14:42:07.627Z,17.93
2019-04-28T14:44:37.430Z,17.26
2019-04-28T14:47:07.124Z,16.93
2019-04-28T14:49:37.224Z,16.52
2019-04-28T14:52:06.975Z,16.16
2019-04-28T14:54:36.951Z,16.26
2019-04-28T14:57:06.930Z,16.28
2019-04-28T14:59:36.754Z,16.21
2019-04-28T15:02:11.447Z,16.05
2019-04-28T15:04:51.891Z,15.83
2019-04-28T15:07:38.710Z,15.83
2019-04-28T15:10:14.655Z,15.77
2019-04-28T15:12:45.999Z,15.69
2019-04-28T15:15:16.058Z,15.35
2019-04-28T15:17:46.112Z,15.46
2019-04-28T15:20:16.076Z,15.45
2019-04-28T15:22:45.762Z,15.34
2019-04-28T15:25:15.831Z,15.44
2019-04-28T15:27:45.627Z,15.04
2019-04-28T15:30:15.733Z,14.81
2019-04-28T15:32:45.481Z,14.58
2019-04-28T15:35:15.410Z,14.48
2019-04-28T15:37:45.211Z,14.36
2019-04-28T15:40:15.044Z,14.38
2019-04-28T15:42:44.831Z,14.48
2019-04-28T15:45:14.909Z,14.53
2019-04-28T15:47:44.588Z,14.67
2019-04-28T15:50:14.662Z,14.61
2019-04-28T15:52:44.393Z,14.70
2019-04-28T15:55:17.434Z,14.81
2019-04-28T15:57:47.378Z,14.92
2019-04-28T16:00:17.696Z,14.86
2019-04-28T16:02:47.349Z,14.89
2019-04-28T16:05:18.726Z,14.95
2019-04-28T16:07:48.581Z,14.99
2019-04-28T16:10:18.472Z,14.94
2019-04-28T16:12:48.202Z,14.92
2019-04-28T16:15:18.127Z,14.97
2019-04-28T16:17:47.786Z,14.96
2019-04-28T16:20:17.636Z,14.96
2019-04-28T16:22:47.328Z,14.93
2019-04-28T16:25:17.061Z,14.92
2019-04-28T16:27:51.331Z,14.89
2019-04-28T16:30:21.302Z,14.96
2019-04-28T16:32:51.045Z,14.96
2019-04-28T16:35:20.763Z,14.99
2019-04-28T16:37:50.938Z,15.03
2019-04-28T16:40:20.698Z,15.04
2019-04-28T16:42:52.569Z,15.10
2019-04-28T16:45:22.435Z,15.13
2019-04-28T16:47:52.204Z,15.16
2019-04-28T16:50:22.066Z,15.16
2019-04-28T16:52:51.753Z,15.12
2019-04-28T16:55:23.107Z,15.32
2019-04-28T16:58:08.161Z,15.50
2019-04-28T17:00:54.834Z,15.48
2019-04-28T17:03:24.650Z,15.53
2019-04-28T17:05:54.341Z,15.58
2019-04-28T17:08:24.081Z,15.50
2019-04-28T17:10:54.803Z,15.43
2019-04-28T17:13:24.511Z,15.42
2019-04-28T17:15:54.214Z,15.32
2019-04-28T17:18:23.964Z,15.32
2019-04-28T17:20:55.095Z,15.11
2019-04-28T17:23:24.938Z,15.01
2019-04-28T17:25:54.638Z,14.93
2019-04-28T17:28:24.402Z,14.82
2019-04-28T17:30:54.177Z,14.77
2019-04-28T17:33:23.862Z,14.67
2019-04-28T17:35:53.633Z,14.59
2019-04-28T17:38:23.311Z,14.47
2019-04-28T17:40:53.337Z,14.37
2019-04-28T17:43:23.128Z,14.27
2019-04-28T17:45:52.834Z,14.19
2019-04-28T17:48:26.934Z,14.28
2019-04-28T17:50:58.331Z,14.16
2019-04-28T17:53:28.093Z,14.25
2019-04-28T17:55:57.845Z,14.08
2019-04-28T17:58:27.607Z,13.93
2019-04-28T18:00:58.412Z,13.68
2019-04-28T18:03:41.662Z,13.57
2019-04-28T18:06:19.368Z,13.40
2019-04-28T18:08:49.273Z,13.40
2019-04-28T18:11:19.791Z,13.25
2019-04-28T18:13:49.858Z,13.16
2019-04-28T18:16:37.422Z,13.06
2019-04-28T18:19:09.207Z,12.96
2019-04-28T18:21:39.046Z,12.88
2019-04-28T18:24:08.902Z,12.83
2019-04-28T18:26:38.633Z,12.76
2019-04-28T18:29:08.411Z,12.65
2019-04-28T18:31:40.809Z,12.60
2019-04-28T18:34:10.311Z,12.58
2019-04-28T18:36:48.027Z,12.58
2019-04-28T18:39:19.365Z,12.58
2019-04-28T18:42:09.134Z,12.54
2019-04-28T18:44:39.001Z,12.50
2019-04-28T18:47:08.983Z,12.45
2019-04-28T18:49:38.925Z,12.48
2019-04-28T18:52:08.576Z,12.43
2019-04-28T18:54:38.325Z,12.42
2019-04-28T18:57:08.334Z,12.40
2019-04-28T18:59:38.097Z,12.35
2019-04-28T19:02:09.401Z,12.32
2019-04-28T19:04:39.156Z,12.26
2019-04-28T19:07:10.821Z,12.18
2019-04-28T19:09:42.226Z,12.10
2019-04-28T19:12:25.145Z,11.95
2019-04-28T19:15:03.414Z,11.83
2019-04-28T19:17:40.648Z,11.80
2019-04-28T19:20:13.585Z,11.82
2019-04-28T19:22:46.150Z,11.94
2019-04-28T19:25:15.909Z,11.92
2019-04-28T19:27:45.659Z,11.92
2019-04-28T19:30:15.810Z,11.93
2019-04-28T19:32:45.649Z,11.90
2019-04-28T19:35:15.671Z,11.82
2019-04-28T19:37:45.621Z,11.86
2019-04-28T19:40:15.964Z,11.82
2019-04-28T19:42:45.903Z,11.70
2019-04-28T19:45:17.490Z,11.69
2019-04-28T19:47:47.159Z,11.65
2019-04-28T19:50:17.027Z,11.61
2019-04-28T19:52:46.767Z,11.58
2019-04-28T19:55:18.152Z,11.52
2019-04-28T19:57:47.672Z,11.50
2019-04-28T20:00:18.089Z,11.41
2019-04-28T20:02:47.899Z,11.21
2019-04-28T20:05:17.708Z,11.05
2019-04-28T20:07:48.068Z,10.98
2019-04-28T20:10:17.961Z,11.06
2019-04-28T20:12:47.746Z,11.10
2019-04-28T20:15:17.665Z,11.19
2019-04-28T20:17:47.575Z,11.04
2019-04-28T20:20:17.463Z,10.91
2019-04-28T20:22:47.166Z,10.72
2019-04-28T20:25:16.944Z,10.59
2019-04-28T20:27:46.669Z,10.47
2019-04-28T20:30:16.615Z,10.44
2019-04-28T20:32:47.090Z,10.46
2019-04-28T20:35:18.897Z,10.46
2019-04-28T20:37:56.096Z,10.40
2019-04-28T20:40:43.408Z,10.29
2019-04-28T20:43:14.862Z,10.32
2019-04-28T20:45:44.635Z,10.35
2019-04-28T20:48:14.551Z,10.35
2019-04-28T20:50:44.368Z,10.44
2019-04-28T20:53:14.168Z,10.38
2019-04-28T20:55:43.856Z,10.28
2019-04-28T20:58:13.542Z,10.17
2019-04-28T21:00:43.975Z,10.23
2019-04-28T21:03:13.733Z,10.22
2019-04-28T21:05:43.476Z,10.33
2019-04-28T21:08:13.211Z,10.41
2019-04-28T21:10:42.929Z,10.46
2019-04-28T21:13:12.707Z,10.43
2019-04-28T21:15:42.423Z,10.35
2019-04-28T21:18:12.092Z,10.39
2019-04-28T21:20:41.789Z,10.31
2019-04-28T21:23:11.472Z,10.18
2019-04-28T21:25:41.226Z,10.07
2019-04-28T21:28:10.943Z,10.08
2019-04-28T21:30:40.567Z,10.01
2019-04-28T21:33:10.429Z,10.01
2019-04-28T21:35:40.160Z,9.98
2019-04-28T21:38:09.891Z,9.96
2019-04-28T21:40:41.134Z,9.91
2019-04-28T21:43:12.441Z,9.89
2019-04-28T21:46:00.069Z,9.82
2019-04-28T21:48:32.380Z,9.77
2019-04-28T21:51:02.347Z,9.73
2019-04-28T21:53:32.047Z,9.73
2019-04-28T21:56:01.731Z,9.63
2019-04-28T21:58:33.218Z,9.52
2019-04-28T22:01:03.397Z,9.55
2019-04-28T22:03:33.177Z,9.65
2019-04-28T22:06:02.916Z,9.72
2019-04-28T22:08:32.630Z,9.68
2019-04-28T22:11:02.450Z,9.81
2019-04-28T22:13:32.122Z,9.76
2019-04-28T22:16:01.931Z,9.69
2019-04-28T22:18:31.730Z,9.64
2019-04-28T22:21:01.439Z,9.46
2019-04-28T22:23:32.713Z,9.34
2019-04-28T22:26:02.449Z,9.34
2019-04-28T22:28:32.097Z,9.40
2019-04-28T22:31:01.799Z,9.55
2019-04-28T22:33:31.466Z,9.62
2019-04-28T22:36:01.164Z,9.59
2019-04-28T22:38:31.041Z,9.58
2019-04-28T22:41:00.828Z,9.66
2019-04-28T22:43:30.549Z,9.63
2019-04-28T22:46:00.303Z,9.51
2019-04-28T22:48:29.940Z,9.43
2019-04-28T22:50:59.897Z,9.25
2019-04-28T22:53:31.232Z,9.21
2019-04-28T22:56:02.647Z,9.25
2019-04-28T22:58:36.482Z,9.29
2019-04-28T23:01:08.362Z,9.35
2019-04-28T23:03:37.941Z,9.30
2019-04-28T23:06:10.339Z,9.11
2019-04-28T23:08:39.329Z,9.03
2019-04-28T23:11:09.298Z,8.98
2019-04-28T23:13:39.113Z,8.94
2019-04-28T23:16:08.924Z,8.94
2019-04-28T23:18:38.707Z,8.84
2019-04-28T23:21:12.642Z,8.77
2019-04-28T23:23:42.349Z,8.91
2019-04-28T23:26:11.995Z,8.98
2019-04-28T23:28:41.719Z,9.06
2019-04-28T23:31:11.468Z,9.09
2019-04-28T23:33:41.284Z,9.06
2019-04-28T23:36:10.916Z,9.14
2019-04-28T23:38:42.498Z,9.20
2019-04-28T23:41:12.149Z,9.16
2019-04-28T23:43:41.764Z,9.05
2019-04-28T23:46:11.617Z,8.82
2019-04-28T23:48:41.268Z,8.63
2019-04-28T23:51:12.622Z,8.49
2019-04-28T23:54:00.114Z,8.38
2019-04-28T23:56:29.871Z,8.42
2019-04-28T23:58:59.589Z,8.55
